sensor_id;sensor_type;location;lat;lon;timestamp;P1;durP1;ratioP1;P2;durP2;ratioP2
3341;SDS011;1684;50.748;6.154;2023-04-25T00:01:54;6.33;;;3.77;;
3341;SDS011;1684;50.748;6.154;2023-04-25T00:04:22;10.53;;;4.57;;
3341;SDS011;1684;50.748;6.154;2023-04-25T00:06:52;9.47;;;5.17;;
3341;SDS011;1684;50.748;6.154;2023-04-25T00:09:20;12.47;;;4.87;;
3341;SDS011;1684;50.748;6.154;2023-04-25T00:11:50;13.53;;;5.03;;
3341;SDS011;1684;50.748;6.154;2023-04-25T00:14:18;13.30;;;4.20;;
3341;SDS011;1684;50.748;6.154;2023-04-25T00:16:46;10.13;;;4.27;;
3341;SDS011;1684;50.748;6.154;2023-04-25T00:19:15;14.70;;;5.20;;
3341;SDS011;1684;50.748;6.154;2023-04-25T00:21:43;8.60;;;4.40;;
3341;SDS011;1684;50.748;6.154;2023-04-25T00:24:12;8.33;;;4.87;;
3341;SDS011;1684;50.748;6.154;2023-04-25T00:26:40;10.77;;;4.40;;
3341;SDS011;1684;50.748;6.154;2023-04-25T00:29:10;14.23;;;4.83;;
3341;SDS011;1684;50.748;6.154;2023-04-25T00:31:38;10.60;;;4.33;;
3341;SDS011;1684;50.748;6.154;2023-04-25T00:34:06;12.73;;;4.80;;
3341;SDS011;1684;50.748;6.154;2023-04-25T00:36:35;7.70;;;4.60;;
3341;SDS011;1684;50.748;6.154;2023-04-25T00:39:04;10.80;;;5.07;;
3341;SDS011;1684;50.748;6.154;2023-04-25T00:41:32;9.53;;;4.97;;
3341;SDS011;1684;50.748;6.154;2023-04-25T00:44:00;8.20;;;3.90;;
3341;SDS011;1684;50.748;6.154;2023-04-25T00:46:31;14.00;;;5.27;;
3341;SDS011;1684;50.748;6.154;2023-04-25T00:48:59;13.33;;;6.20;;
3341;SDS011;1684;50.748;6.154;2023-04-25T00:51:27;15.80;;;7.10;;
3341;SDS011;1684;50.748;6.154;2023-04-25T00:53:56;13.53;;;5.20;;
3341;SDS011;1684;50.748;6.154;2023-04-25T00:56:24;12.67;;;4.80;;
3341;SDS011;1684;50.748;6.154;2023-04-25T00:58:53;10.73;;;4.20;;
3341;SDS011;1684;50.748;6.154;2023-04-25T01:01:22;10.47;;;4.53;;
3341;SDS011;1684;50.748;6.154;2023-04-25T01:03:52;11.43;;;5.10;;
3341;SDS011;1684;50.748;6.154;2023-04-25T01:06:22;8.50;;;4.83;;
3341;SDS011;1684;50.748;6.154;2023-04-25T01:08:51;9.53;;;4.60;;
3341;SDS011;1684;50.748;6.154;2023-04-25T01:11:19;9.57;;;5.00;;
3341;SDS011;1684;50.748;6.154;2023-04-25T01:13:47;17.27;;;5.03;;
3341;SDS011;1684;50.748;6.154;2023-04-25T01:16:16;14.30;;;5.83;;
3341;SDS011;1684;50.748;6.154;2023-04-25T01:18:45;12.07;;;5.70;;
3341;SDS011;1684;50.748;6.154;2023-04-25T01:21:15;9.33;;;4.60;;
3341;SDS011;1684;50.748;6.154;2023-04-25T01:23:43;13.47;;;5.67;;
3341;SDS011;1684;50.748;6.154;2023-04-25T01:26:11;19.77;;;6.63;;
3341;SDS011;1684;50.748;6.154;2023-04-25T01:28:40;14.83;;;5.87;;
3341;SDS011;1684;50.748;6.154;2023-04-25T01:31:08;9.50;;;4.57;;
3341;SDS011;1684;50.748;6.154;2023-04-25T01:33:37;12.60;;;4.43;;
3341;SDS011;1684;50.748;6.154;2023-04-25T01:36:05;8.40;;;3.90;;
3341;SDS011;1684;50.748;6.154;2023-04-25T01:38:35;6.10;;;3.40;;
3341;SDS011;1684;50.748;6.154;2023-04-25T01:41:03;5.43;;;4.00;;
3341;SDS011;1684;50.748;6.154;2023-04-25T01:43:33;12.10;;;3.97;;
3341;SDS011;1684;50.748;6.154;2023-04-25T01:46:01;15.03;;;5.27;;
3341;SDS011;1684;50.748;6.154;2023-04-25T01:48:30;6.13;;;3.50;;
3341;SDS011;1684;50.748;6.154;2023-04-25T01:50:58;7.30;;;3.57;;
3341;SDS011;1684;50.748;6.154;2023-04-25T01:53:26;9.40;;;3.53;;
3341;SDS011;1684;50.748;6.154;2023-04-25T01:55:56;10.00;;;4.10;;
3341;SDS011;1684;50.748;6.154;2023-04-25T01:58:24;7.73;;;3.77;;
3341;SDS011;1684;50.748;6.154;2023-04-25T02:00:52;6.93;;;3.40;;
3341;SDS011;1684;50.748;6.154;2023-04-25T02:03:20;7.57;;;4.27;;
3341;SDS011;1684;50.748;6.154;2023-04-25T02:05:49;7.80;;;3.53;;
3341;SDS011;1684;50.748;6.154;2023-04-25T02:08:17;9.40;;;3.87;;
3341;SDS011;1684;50.748;6.154;2023-04-25T02:10:46;13.30;;;4.87;;
3341;SDS011;1684;50.748;6.154;2023-04-25T02:13:16;14.67;;;3.93;;
3341;SDS011;1684;50.748;6.154;2023-04-25T02:15:44;9.93;;;4.17;;
3341;SDS011;1684;50.748;6.154;2023-04-25T02:18:12;10.30;;;4.20;;
3341;SDS011;1684;50.748;6.154;2023-04-25T02:20:42;10.03;;;4.70;;
3341;SDS011;1684;50.748;6.154;2023-04-25T02:23:10;10.70;;;3.97;;
3341;SDS011;1684;50.748;6.154;2023-04-25T02:25:38;14.57;;;5.40;;
3341;SDS011;1684;50.748;6.154;2023-04-25T02:28:07;6.23;;;3.27;;
3341;SDS011;1684;50.748;6.154;2023-04-25T02:30:36;8.33;;;3.70;;
3341;SDS011;1684;50.748;6.154;2023-04-25T02:33:05;8.23;;;4.00;;
3341;SDS011;1684;50.748;6.154;2023-04-25T02:35:33;9.53;;;3.87;;
3341;SDS011;1684;50.748;6.154;2023-04-25T02:38:01;8.87;;;3.97;;
3341;SDS011;1684;50.748;6.154;2023-04-25T02:40:30;14.23;;;4.90;;
3341;SDS011;1684;50.748;6.154;2023-04-25T02:42:58;9.20;;;4.23;;
3341;SDS011;1684;50.748;6.154;2023-04-25T02:45:26;9.27;;;3.80;;
3341;SDS011;1684;50.748;6.154;2023-04-25T02:47:56;14.40;;;6.40;;
3341;SDS011;1684;50.748;6.154;2023-04-25T02:50:24;8.63;;;3.27;;
3341;SDS011;1684;50.748;6.154;2023-04-25T02:52:52;9.17;;;3.20;;
3341;SDS011;1684;50.748;6.154;2023-04-25T02:55:21;8.00;;;4.00;;
3341;SDS011;1684;50.748;6.154;2023-04-25T02:57:53;10.47;;;4.90;;
3341;SDS011;1684;50.748;6.154;2023-04-25T03:00:25;15.67;;;6.97;;
3341;SDS011;1684;50.748;6.154;2023-04-25T03:03:25;18.30;;;4.80;;
3341;SDS011;1684;50.748;6.154;2023-04-25T03:05:54;10.90;;;4.97;;
3341;SDS011;1684;50.748;6.154;2023-04-25T03:08:22;13.73;;;5.10;;
3341;SDS011;1684;50.748;6.154;2023-04-25T03:10:51;8.23;;;3.87;;
3341;SDS011;1684;50.748;6.154;2023-04-25T03:13:21;16.97;;;3.57;;
3341;SDS011;1684;50.748;6.154;2023-04-25T03:15:50;12.47;;;4.80;;
3341;SDS011;1684;50.748;6.154;2023-04-25T03:18:19;10.60;;;4.63;;
3341;SDS011;1684;50.748;6.154;2023-04-25T03:20:48;12.07;;;4.00;;
3341;SDS011;1684;50.748;6.154;2023-04-25T03:23:17;11.87;;;5.60;;
3341;SDS011;1684;50.748;6.154;2023-04-25T03:25:45;9.73;;;3.83;;
3341;SDS011;1684;50.748;6.154;2023-04-25T03:28:13;15.73;;;4.03;;
3341;SDS011;1684;50.748;6.154;2023-04-25T03:30:41;8.90;;;4.50;;
3341;SDS011;1684;50.748;6.154;2023-04-25T03:33:09;10.47;;;4.30;;
3341;SDS011;1684;50.748;6.154;2023-04-25T03:35:38;11.07;;;4.40;;
3341;SDS011;1684;50.748;6.154;2023-04-25T03:38:08;11.97;;;4.80;;
3341;SDS011;1684;50.748;6.154;2023-04-25T03:40:36;6.83;;;3.70;;
3341;SDS011;1684;50.748;6.154;2023-04-25T03:43:04;9.00;;;4.40;;
3341;SDS011;1684;50.748;6.154;2023-04-25T03:45:33;12.57;;;5.13;;
3341;SDS011;1684;50.748;6.154;2023-04-25T03:48:01;10.87;;;5.10;;
3341;SDS011;1684;50.748;6.154;2023-04-25T03:50:29;6.80;;;4.03;;
3341;SDS011;1684;50.748;6.154;2023-04-25T03:52:58;17.97;;;4.97;;
3341;SDS011;1684;50.748;6.154;2023-04-25T03:55:27;9.60;;;4.20;;
3341;SDS011;1684;50.748;6.154;2023-04-25T03:57:56;8.80;;;4.23;;
3341;SDS011;1684;50.748;6.154;2023-04-25T04:00:24;9.17;;;4.90;;
3341;SDS011;1684;50.748;6.154;2023-04-25T04:02:52;8.83;;;3.70;;
3341;SDS011;1684;50.748;6.154;2023-04-25T04:05:21;16.07;;;4.37;;
3341;SDS011;1684;50.748;6.154;2023-04-25T04:07:49;11.33;;;5.40;;
3341;SDS011;1684;50.748;6.154;2023-04-25T04:10:18;10.23;;;3.97;;
3341;SDS011;1684;50.748;6.154;2023-04-25T04:12:47;8.67;;;4.67;;
3341;SDS011;1684;50.748;6.154;2023-04-25T04:15:16;9.03;;;3.87;;
3341;SDS011;1684;50.748;6.154;2023-04-25T04:17:44;8.27;;;3.87;;
3341;SDS011;1684;50.748;6.154;2023-04-25T04:20:13;9.43;;;4.20;;
3341;SDS011;1684;50.748;6.154;2023-04-25T04:22:41;12.40;;;5.10;;
3341;SDS011;1684;50.748;6.154;2023-04-25T04:25:09;10.10;;;4.17;;
3341;SDS011;1684;50.748;6.154;2023-04-25T04:27:38;12.53;;;4.17;;
3341;SDS011;1684;50.748;6.154;2023-04-25T04:30:08;7.73;;;3.70;;
3341;SDS011;1684;50.748;6.154;2023-04-25T04:32:36;8.20;;;3.50;;
3341;SDS011;1684;50.748;6.154;2023-04-25T04:35:05;13.73;;;4.70;;
3341;SDS011;1684;50.748;6.154;2023-04-25T04:37:35;8.70;;;4.20;;
3341;SDS011;1684;50.748;6.154;2023-04-25T04:40:04;12.23;;;4.50;;
3341;SDS011;1684;50.748;6.154;2023-04-25T04:42:33;10.93;;;4.50;;
3341;SDS011;1684;50.748;6.154;2023-04-25T04:45:02;9.83;;;4.10;;
3341;SDS011;1684;50.748;6.154;2023-04-25T04:47:32;8.37;;;4.10;;
3341;SDS011;1684;50.748;6.154;2023-04-25T04:50:03;11.80;;;3.83;;
3341;SDS011;1684;50.748;6.154;2023-04-25T04:52:34;10.43;;;3.47;;
3341;SDS011;1684;50.748;6.154;2023-04-25T04:55:03;11.70;;;4.10;;
3341;SDS011;1684;50.748;6.154;2023-04-25T04:57:32;9.23;;;3.77;;
3341;SDS011;1684;50.748;6.154;2023-04-25T05:00:01;17.23;;;5.67;;
3341;SDS011;1684;50.748;6.154;2023-04-25T05:02:34;11.53;;;3.60;;
3341;SDS011;1684;50.748;6.154;2023-04-25T05:05:03;10.53;;;3.90;;
3341;SDS011;1684;50.748;6.154;2023-04-25T05:07:31;11.97;;;4.20;;
3341;SDS011;1684;50.748;6.154;2023-04-25T05:09:59;8.00;;;4.30;;
3341;SDS011;1684;50.748;6.154;2023-04-25T05:12:28;7.30;;;4.17;;
3341;SDS011;1684;50.748;6.154;2023-04-25T05:14:56;10.90;;;3.67;;
3341;SDS011;1684;50.748;6.154;2023-04-25T05:17:24;10.17;;;4.40;;
3341;SDS011;1684;50.748;6.154;2023-04-25T05:19:54;10.20;;;4.20;;
3341;SDS011;1684;50.748;6.154;2023-04-25T05:22:23;10.23;;;5.63;;
3341;SDS011;1684;50.748;6.154;2023-04-25T05:24:51;11.33;;;4.03;;
3341;SDS011;1684;50.748;6.154;2023-04-25T05:27:21;14.87;;;5.50;;
3341;SDS011;1684;50.748;6.154;2023-04-25T05:29:49;9.07;;;3.43;;
3341;SDS011;1684;50.748;6.154;2023-04-25T05:32:18;9.97;;;3.97;;
3341;SDS011;1684;50.748;6.154;2023-04-25T05:34:47;10.53;;;3.53;;
3341;SDS011;1684;50.748;6.154;2023-04-25T05:37:17;10.03;;;3.70;;
3341;SDS011;1684;50.748;6.154;2023-04-25T05:39:45;16.10;;;4.93;;
3341;SDS011;1684;50.748;6.154;2023-04-25T05:42:14;13.70;;;5.50;;
3341;SDS011;1684;50.748;6.154;2023-04-25T05:44:42;9.67;;;4.50;;
3341;SDS011;1684;50.748;6.154;2023-04-25T05:47:10;19.47;;;5.47;;
3341;SDS011;1684;50.748;6.154;2023-04-25T05:49:38;14.57;;;4.57;;
3341;SDS011;1684;50.748;6.154;2023-04-25T05:52:07;13.30;;;4.00;;
3341;SDS011;1684;50.748;6.154;2023-04-25T05:54:36;16.83;;;3.60;;
3341;SDS011;1684;50.748;6.154;2023-04-25T05:57:04;18.07;;;4.73;;
3341;SDS011;1684;50.748;6.154;2023-04-25T05:59:33;13.00;;;4.50;;
3341;SDS011;1684;50.748;6.154;2023-04-25T06:02:02;10.37;;;3.57;;
3341;SDS011;1684;50.748;6.154;2023-04-25T06:04:30;8.37;;;3.57;;
3341;SDS011;1684;50.748;6.154;2023-04-25T06:06:59;7.23;;;2.80;;
3341;SDS011;1684;50.748;6.154;2023-04-25T06:09:27;12.60;;;4.13;;
3341;SDS011;1684;50.748;6.154;2023-04-25T06:11:56;12.00;;;5.03;;
3341;SDS011;1684;50.748;6.154;2023-04-25T06:14:25;15.50;;;5.00;;
3341;SDS011;1684;50.748;6.154;2023-04-25T06:16:55;10.60;;;4.50;;
3341;SDS011;1684;50.748;6.154;2023-04-25T06:19:23;12.37;;;3.60;;
3341;SDS011;1684;50.748;6.154;2023-04-25T06:21:51;11.63;;;4.03;;
3341;SDS011;1684;50.748;6.154;2023-04-25T06:24:19;12.70;;;2.70;;
3341;SDS011;1684;50.748;6.154;2023-04-25T06:26:47;11.63;;;4.13;;
3341;SDS011;1684;50.748;6.154;2023-04-25T06:29:17;6.87;;;2.80;;
3341;SDS011;1684;50.748;6.154;2023-04-25T06:31:45;7.50;;;2.70;;
3341;SDS011;1684;50.748;6.154;2023-04-25T06:34:14;12.93;;;3.70;;
3341;SDS011;1684;50.748;6.154;2023-04-25T06:36:42;10.67;;;4.27;;
3341;SDS011;1684;50.748;6.154;2023-04-25T06:39:11;12.27;;;3.93;;
3341;SDS011;1684;50.748;6.154;2023-04-25T06:41:39;5.53;;;1.77;;
3341;SDS011;1684;50.748;6.154;2023-04-25T06:44:07;11.27;;;4.33;;
3341;SDS011;1684;50.748;6.154;2023-04-25T06:46:37;13.23;;;3.63;;
3341;SDS011;1684;50.748;6.154;2023-04-25T06:49:05;13.57;;;4.37;;
3341;SDS011;1684;50.748;6.154;2023-04-25T06:51:34;14.00;;;5.13;;
3341;SDS011;1684;50.748;6.154;2023-04-25T06:54:02;5.63;;;3.33;;
3341;SDS011;1684;50.748;6.154;2023-04-25T06:56:31;12.40;;;3.30;;
3341;SDS011;1684;50.748;6.154;2023-04-25T06:59:00;9.63;;;2.23;;
3341;SDS011;1684;50.748;6.154;2023-04-25T07:01:28;9.83;;;3.63;;
3341;SDS011;1684;50.748;6.154;2023-04-25T07:03:58;5.50;;;2.57;;
3341;SDS011;1684;50.748;6.154;2023-04-25T07:06:26;13.67;;;2.97;;
3341;SDS011;1684;50.748;6.154;2023-04-25T07:08:55;18.87;;;4.23;;
3341;SDS011;1684;50.748;6.154;2023-04-25T07:11:23;25.53;;;4.43;;
3341;SDS011;1684;50.748;6.154;2023-04-25T07:13:52;9.50;;;3.90;;
3341;SDS011;1684;50.748;6.154;2023-04-25T07:16:20;13.57;;;4.20;;
3341;SDS011;1684;50.748;6.154;2023-04-25T07:18:48;14.67;;;4.20;;
3341;SDS011;1684;50.748;6.154;2023-04-25T07:21:18;6.63;;;3.60;;
3341;SDS011;1684;50.748;6.154;2023-04-25T07:23:47;11.13;;;3.77;;
3341;SDS011;1684;50.748;6.154;2023-04-25T07:26:15;12.20;;;4.40;;
3341;SDS011;1684;50.748;6.154;2023-04-25T07:28:43;8.27;;;2.77;;
3341;SDS011;1684;50.748;6.154;2023-04-25T07:31:16;6.77;;;3.50;;
3341;SDS011;1684;50.748;6.154;2023-04-25T07:33:44;15.93;;;3.80;;
3341;SDS011;1684;50.748;6.154;2023-04-25T07:36:12;7.30;;;2.90;;
3341;SDS011;1684;50.748;6.154;2023-04-25T07:38:42;9.30;;;4.37;;
3341;SDS011;1684;50.748;6.154;2023-04-25T07:41:10;11.77;;;3.27;;
3341;SDS011;1684;50.748;6.154;2023-04-25T07:43:39;10.00;;;3.73;;
3341;SDS011;1684;50.748;6.154;2023-04-25T07:46:08;6.50;;;2.60;;
3341;SDS011;1684;50.748;6.154;2023-04-25T07:48:37;7.83;;;2.67;;
3341;SDS011;1684;50.748;6.154;2023-04-25T07:51:05;7.20;;;2.70;;
3341;SDS011;1684;50.748;6.154;2023-04-25T07:53:33;14.27;;;3.50;;
3341;SDS011;1684;50.748;6.154;2023-04-25T07:56:05;8.90;;;3.13;;
3341;SDS011;1684;50.748;6.154;2023-04-25T07:58:34;13.37;;;3.03;;
3341;SDS011;1684;50.748;6.154;2023-04-25T08:01:02;7.43;;;3.30;;
3341;SDS011;1684;50.748;6.154;2023-04-25T08:03:32;6.33;;;2.47;;
3341;SDS011;1684;50.748;6.154;2023-04-25T08:06:01;8.70;;;3.27;;
3341;SDS011;1684;50.748;6.154;2023-04-25T08:08:33;5.77;;;2.93;;
3341;SDS011;1684;50.748;6.154;2023-04-25T08:11:01;3.33;;;1.87;;
3341;SDS011;1684;50.748;6.154;2023-04-25T08:13:31;8.90;;;2.30;;
3341;SDS011;1684;50.748;6.154;2023-04-25T08:15:59;17.80;;;4.57;;
3341;SDS011;1684;50.748;6.154;2023-04-25T08:18:27;9.10;;;3.40;;
3341;SDS011;1684;50.748;6.154;2023-04-25T08:20:57;10.30;;;3.20;;
3341;SDS011;1684;50.748;6.154;2023-04-25T08:23:25;6.20;;;2.83;;
3341;SDS011;1684;50.748;6.154;2023-04-25T08:25:54;7.97;;;3.10;;
3341;SDS011;1684;50.748;6.154;2023-04-25T08:28:22;7.30;;;3.70;;
3341;SDS011;1684;50.748;6.154;2023-04-25T08:30:52;10.37;;;3.30;;
3341;SDS011;1684;50.748;6.154;2023-04-25T08:33:20;7.43;;;3.57;;
3341;SDS011;1684;50.748;6.154;2023-04-25T08:35:48;4.87;;;2.17;;
3341;SDS011;1684;50.748;6.154;2023-04-25T08:38:17;5.93;;;2.70;;
3341;SDS011;1684;50.748;6.154;2023-04-25T08:40:45;9.30;;;3.20;;
3341;SDS011;1684;50.748;6.154;2023-04-25T08:43:17;7.27;;;2.60;;
3341;SDS011;1684;50.748;6.154;2023-04-25T08:45:46;8.10;;;3.43;;
3341;SDS011;1684;50.748;6.154;2023-04-25T08:48:16;11.10;;;3.53;;
3341;SDS011;1684;50.748;6.154;2023-04-25T08:50:45;5.93;;;2.67;;
3341;SDS011;1684;50.748;6.154;2023-04-25T08:53:14;10.80;;;3.30;;
3341;SDS011;1684;50.748;6.154;2023-04-25T08:55:45;7.07;;;2.80;;
3341;SDS011;1684;50.748;6.154;2023-04-25T08:58:14;9.70;;;2.57;;
3341;SDS011;1684;50.748;6.154;2023-04-25T09:00:43;6.90;;;2.50;;
3341;SDS011;1684;50.748;6.154;2023-04-25T09:03:11;8.90;;;2.40;;
3341;SDS011;1684;50.748;6.154;2023-04-25T09:05:41;9.90;;;2.53;;
3341;SDS011;1684;50.748;6.154;2023-04-25T09:08:10;5.63;;;1.90;;
3341;SDS011;1684;50.748;6.154;2023-04-25T09:10:38;7.33;;;2.90;;
3341;SDS011;1684;50.748;6.154;2023-04-25T09:13:07;6.00;;;2.50;;
3341;SDS011;1684;50.748;6.154;2023-04-25T09:15:46;4.00;;;1.70;;
3341;SDS011;1684;50.748;6.154;2023-04-25T09:18:21;9.00;;;3.10;;
3341;SDS011;1684;50.748;6.154;2023-04-25T09:20:58;8.97;;;3.47;;
3341;SDS011;1684;50.748;6.154;2023-04-25T09:23:38;5.07;;;1.83;;
3341;SDS011;1684;50.748;6.154;2023-04-25T09:26:07;8.40;;;2.60;;
3341;SDS011;1684;50.748;6.154;2023-04-25T09:28:36;6.63;;;2.57;;
3341;SDS011;1684;50.748;6.154;2023-04-25T09:31:05;4.13;;;2.20;;
3341;SDS011;1684;50.748;6.154;2023-04-25T09:33:34;7.73;;;3.30;;
3341;SDS011;1684;50.748;6.154;2023-04-25T09:36:04;8.10;;;2.23;;
3341;SDS011;1684;50.748;6.154;2023-04-25T09:38:39;8.47;;;2.80;;
3341;SDS011;1684;50.748;6.154;2023-04-25T09:41:08;9.40;;;3.00;;
3341;SDS011;1684;50.748;6.154;2023-04-25T09:43:36;8.77;;;2.80;;
3341;SDS011;1684;50.748;6.154;2023-04-25T09:46:07;11.47;;;2.20;;
3341;SDS011;1684;50.748;6.154;2023-04-25T09:48:37;4.50;;;2.47;;
3341;SDS011;1684;50.748;6.154;2023-04-25T09:51:08;9.63;;;2.90;;
3341;SDS011;1684;50.748;6.154;2023-04-25T09:53:38;8.83;;;2.27;;
3341;SDS011;1684;50.748;6.154;2023-04-25T09:56:07;4.00;;;1.67;;
3341;SDS011;1684;50.748;6.154;2023-04-25T09:58:36;6.10;;;2.20;;
3341;SDS011;1684;50.748;6.154;2023-04-25T10:01:12;7.03;;;2.30;;
3341;SDS011;1684;50.748;6.154;2023-04-25T10:03:41;5.60;;;2.40;;
3341;SDS011;1684;50.748;6.154;2023-04-25T10:06:12;5.57;;;2.17;;
3341;SDS011;1684;50.748;6.154;2023-04-25T10:08:40;2.57;;;1.20;;
3341;SDS011;1684;50.748;6.154;2023-04-25T10:11:09;6.43;;;2.77;;
3341;SDS011;1684;50.748;6.154;2023-04-25T10:13:40;5.33;;;1.73;;
3341;SDS011;1684;50.748;6.154;2023-04-25T10:16:09;8.57;;;1.90;;
3341;SDS011;1684;50.748;6.154;2023-04-25T10:18:39;11.83;;;3.37;;
3341;SDS011;1684;50.748;6.154;2023-04-25T10:21:07;7.87;;;2.13;;
3341;SDS011;1684;50.748;6.154;2023-04-25T10:23:35;9.33;;;2.70;;
3341;SDS011;1684;50.748;6.154;2023-04-25T10:26:04;7.93;;;3.47;;
3341;SDS011;1684;50.748;6.154;2023-04-25T10:31:16;7.30;;;2.90;;
3341;SDS011;1684;50.748;6.154;2023-04-25T10:33:46;9.37;;;3.37;;
3341;SDS011;1684;50.748;6.154;2023-04-25T10:36:17;5.63;;;1.57;;
3341;SDS011;1684;50.748;6.154;2023-04-25T10:38:47;6.07;;;2.10;;
3341;SDS011;1684;50.748;6.154;2023-04-25T10:41:17;5.37;;;2.23;;
3341;SDS011;1684;50.748;6.154;2023-04-25T10:43:46;4.80;;;2.57;;
3341;SDS011;1684;50.748;6.154;2023-04-25T10:46:16;3.97;;;2.30;;
3341;SDS011;1684;50.748;6.154;2023-04-25T10:48:45;12.40;;;4.60;;
3341;SDS011;1684;50.748;6.154;2023-04-25T10:51:19;12.30;;;3.07;;
3341;SDS011;1684;50.748;6.154;2023-04-25T10:53:56;10.20;;;2.97;;
3341;SDS011;1684;50.748;6.154;2023-04-25T10:56:25;9.50;;;3.60;;
3341;SDS011;1684;50.748;6.154;2023-04-25T10:59:07;4.87;;;1.90;;
3341;SDS011;1684;50.748;6.154;2023-04-25T11:01:37;8.30;;;2.97;;
3341;SDS011;1684;50.748;6.154;2023-04-25T11:04:06;7.73;;;3.30;;
3341;SDS011;1684;50.748;6.154;2023-04-25T11:06:41;8.77;;;3.60;;
3341;SDS011;1684;50.748;6.154;2023-04-25T11:09:11;5.93;;;2.83;;
3341;SDS011;1684;50.748;6.154;2023-04-25T11:11:40;7.53;;;2.67;;
3341;SDS011;1684;50.748;6.154;2023-04-25T11:14:08;10.30;;;2.83;;
3341;SDS011;1684;50.748;6.154;2023-04-25T11:16:37;9.63;;;4.67;;
3341;SDS011;1684;50.748;6.154;2023-04-25T11:19:05;7.63;;;3.33;;
3341;SDS011;1684;50.748;6.154;2023-04-25T11:21:33;8.03;;;3.47;;
3341;SDS011;1684;50.748;6.154;2023-04-25T11:24:03;14.00;;;4.70;;
3341;SDS011;1684;50.748;6.154;2023-04-25T11:26:32;5.57;;;2.90;;
3341;SDS011;1684;50.748;6.154;2023-04-25T11:29:00;10.17;;;3.40;;
3341;SDS011;1684;50.748;6.154;2023-04-25T11:31:29;6.60;;;2.70;;
3341;SDS011;1684;50.748;6.154;2023-04-25T11:33:57;5.33;;;2.93;;
3341;SDS011;1684;50.748;6.154;2023-04-25T11:36:26;11.20;;;4.53;;
3341;SDS011;1684;50.748;6.154;2023-04-25T11:38:54;9.23;;;3.90;;
3341;SDS011;1684;50.748;6.154;2023-04-25T11:41:24;6.60;;;3.43;;
3341;SDS011;1684;50.748;6.154;2023-04-25T11:43:53;8.87;;;3.97;;
3341;SDS011;1684;50.748;6.154;2023-04-25T11:46:22;11.03;;;4.47;;
3341;SDS011;1684;50.748;6.154;2023-04-25T11:48:50;7.00;;;3.00;;
3341;SDS011;1684;50.748;6.154;2023-04-25T11:51:19;8.63;;;3.30;;
3341;SDS011;1684;50.748;6.154;2023-04-25T11:53:47;7.10;;;2.20;;
3341;SDS011;1684;50.748;6.154;2023-04-25T11:56:15;6.90;;;3.43;;
3341;SDS011;1684;50.748;6.154;2023-04-25T11:58:58;5.60;;;2.80;;
3341;SDS011;1684;50.748;6.154;2023-04-25T12:01:27;5.80;;;2.80;;
3341;SDS011;1684;50.748;6.154;2023-04-25T12:04:09;8.50;;;3.43;;
3341;SDS011;1684;50.748;6.154;2023-04-25T12:06:39;9.43;;;2.87;;
3341;SDS011;1684;50.748;6.154;2023-04-25T12:09:08;5.67;;;1.87;;
3341;SDS011;1684;50.748;6.154;2023-04-25T12:11:42;3.90;;;2.03;;
3341;SDS011;1684;50.748;6.154;2023-04-25T12:14:19;11.13;;;4.70;;
3341;SDS011;1684;50.748;6.154;2023-04-25T12:16:48;7.97;;;2.70;;
3341;SDS011;1684;50.748;6.154;2023-04-25T12:19:18;6.40;;;3.20;;
3341;SDS011;1684;50.748;6.154;2023-04-25T12:21:46;9.63;;;2.03;;
3341;SDS011;1684;50.748;6.154;2023-04-25T12:24:25;12.37;;;3.63;;
3341;SDS011;1684;50.748;6.154;2023-04-25T12:26:58;4.83;;;2.10;;
3341;SDS011;1684;50.748;6.154;2023-04-25T12:29:29;6.07;;;3.20;;
3341;SDS011;1684;50.748;6.154;2023-04-25T12:32:13;7.90;;;2.10;;
3341;SDS011;1684;50.748;6.154;2023-04-25T12:34:41;10.10;;;2.63;;
3341;SDS011;1684;50.748;6.154;2023-04-25T12:37:10;8.30;;;2.70;;
3341;SDS011;1684;50.748;6.154;2023-04-25T12:39:38;11.00;;;3.07;;
3341;SDS011;1684;50.748;6.154;2023-04-25T12:42:07;6.83;;;2.43;;
3341;SDS011;1684;50.748;6.154;2023-04-25T12:44:40;7.20;;;3.07;;
3341;SDS011;1684;50.748;6.154;2023-04-25T12:47:08;5.60;;;1.83;;
3341;SDS011;1684;50.748;6.154;2023-04-25T12:49:36;5.00;;;2.67;;
3341;SDS011;1684;50.748;6.154;2023-04-25T12:52:05;3.70;;;1.20;;
3341;SDS011;1684;50.748;6.154;2023-04-25T12:54:33;9.03;;;2.80;;
3341;SDS011;1684;50.748;6.154;2023-04-25T12:57:01;4.90;;;2.17;;
3341;SDS011;1684;50.748;6.154;2023-04-25T12:59:30;4.77;;;1.83;;
3341;SDS011;1684;50.748;6.154;2023-04-25T13:01:59;6.47;;;2.10;;
3341;SDS011;1684;50.748;6.154;2023-04-25T13:04:28;10.60;;;2.30;;
3341;SDS011;1684;50.748;6.154;2023-04-25T13:06:57;4.13;;;2.37;;
3341;SDS011;1684;50.748;6.154;2023-04-25T13:09:25;3.90;;;2.23;;
3341;SDS011;1684;50.748;6.154;2023-04-25T13:11:53;10.73;;;3.23;;
3341;SDS011;1684;50.748;6.154;2023-04-25T13:14:24;6.80;;;2.70;;
3341;SDS011;1684;50.748;6.154;2023-04-25T13:16:52;6.47;;;2.70;;
3341;SDS011;1684;50.748;6.154;2023-04-25T13:19:22;5.90;;;2.60;;
3341;SDS011;1684;50.748;6.154;2023-04-25T13:21:51;10.73;;;3.63;;
3341;SDS011;1684;50.748;6.154;2023-04-25T13:24:20;8.23;;;2.77;;
3341;SDS011;1684;50.748;6.154;2023-04-25T13:26:48;12.50;;;2.90;;
3341;SDS011;1684;50.748;6.154;2023-04-25T13:29:16;3.77;;;1.80;;
3341;SDS011;1684;50.748;6.154;2023-04-25T13:31:44;4.10;;;2.57;;
3341;SDS011;1684;50.748;6.154;2023-04-25T13:34:13;6.37;;;2.00;;
3341;SDS011;1684;50.748;6.154;2023-04-25T13:36:42;8.57;;;2.90;;
3341;SDS011;1684;50.748;6.154;2023-04-25T13:39:11;6.77;;;3.03;;
3341;SDS011;1684;50.748;6.154;2023-04-25T13:41:40;7.00;;;2.57;;
3341;SDS011;1684;50.748;6.154;2023-04-25T13:44:08;3.30;;;1.83;;
3341;SDS011;1684;50.748;6.154;2023-04-25T13:46:37;7.17;;;2.07;;
3341;SDS011;1684;50.748;6.154;2023-04-25T13:49:12;6.93;;;2.53;;
3341;SDS011;1684;50.748;6.154;2023-04-25T13:51:43;4.40;;;1.60;;
3341;SDS011;1684;50.748;6.154;2023-04-25T13:54:11;2.73;;;0.90;;
3341;SDS011;1684;50.748;6.154;2023-04-25T13:56:40;5.00;;;2.40;;
3341;SDS011;1684;50.748;6.154;2023-04-25T13:59:09;3.93;;;1.40;;
3341;SDS011;1684;50.748;6.154;2023-04-25T14:01:37;5.30;;;2.10;;
3341;SDS011;1684;50.748;6.154;2023-04-25T14:04:06;5.23;;;2.00;;
3341;SDS011;1684;50.748;6.154;2023-04-25T14:06:34;5.67;;;2.70;;
3341;SDS011;1684;50.748;6.154;2023-04-25T14:09:04;9.13;;;2.50;;
3341;SDS011;1684;50.748;6.154;2023-04-25T14:11:36;5.53;;;2.43;;
3341;SDS011;1684;50.748;6.154;2023-04-25T14:14:04;3.70;;;1.70;;
3341;SDS011;1684;50.748;6.154;2023-04-25T14:16:33;4.47;;;1.60;;
3341;SDS011;1684;50.748;6.154;2023-04-25T14:19:01;7.33;;;2.70;;
3341;SDS011;1684;50.748;6.154;2023-04-25T14:21:29;3.90;;;1.40;;
3341;SDS011;1684;50.748;6.154;2023-04-25T14:23:59;5.00;;;2.30;;
3341;SDS011;1684;50.748;6.154;2023-04-25T14:26:29;5.33;;;2.63;;
3341;SDS011;1684;50.748;6.154;2023-04-25T14:28:57;6.43;;;2.10;;
3341;SDS011;1684;50.748;6.154;2023-04-25T14:31:25;7.47;;;2.40;;
3341;SDS011;1684;50.748;6.154;2023-04-25T14:33:54;2.73;;;1.10;;
3341;SDS011;1684;50.748;6.154;2023-04-25T14:36:25;9.73;;;2.30;;
3341;SDS011;1684;50.748;6.154;2023-04-25T14:38:53;10.33;;;2.70;;
3341;SDS011;1684;50.748;6.154;2023-04-25T14:41:22;5.10;;;2.47;;
3341;SDS011;1684;50.748;6.154;2023-04-25T14:43:52;4.70;;;2.00;;
3341;SDS011;1684;50.748;6.154;2023-04-25T14:46:21;7.23;;;3.03;;
3341;SDS011;1684;50.748;6.154;2023-04-25T14:48:50;8.93;;;3.13;;
3341;SDS011;1684;50.748;6.154;2023-04-25T14:51:19;4.50;;;1.90;;
3341;SDS011;1684;50.748;6.154;2023-04-25T14:53:48;4.27;;;1.80;;
3341;SDS011;1684;50.748;6.154;2023-04-25T14:56:17;6.23;;;2.27;;
3341;SDS011;1684;50.748;6.154;2023-04-25T14:58:45;5.00;;;1.47;;
3341;SDS011;1684;50.748;6.154;2023-04-25T15:01:14;8.67;;;3.23;;
3341;SDS011;1684;50.748;6.154;2023-04-25T15:03:43;3.00;;;1.60;;
3341;SDS011;1684;50.748;6.154;2023-04-25T15:06:12;3.43;;;1.77;;
3341;SDS011;1684;50.748;6.154;2023-04-25T15:08:40;4.87;;;2.03;;
3341;SDS011;1684;50.748;6.154;2023-04-25T15:11:08;4.73;;;2.20;;
3341;SDS011;1684;50.748;6.154;2023-04-25T15:13:37;3.07;;;1.53;;
3341;SDS011;1684;50.748;6.154;2023-04-25T15:16:06;6.60;;;2.80;;
3341;SDS011;1684;50.748;6.154;2023-04-25T15:18:36;5.70;;;2.10;;
3341;SDS011;1684;50.748;6.154;2023-04-25T15:21:04;4.93;;;2.00;;
3341;SDS011;1684;50.748;6.154;2023-04-25T15:23:33;3.70;;;2.20;;
3341;SDS011;1684;50.748;6.154;2023-04-25T15:26:01;5.47;;;1.93;;